This is the latest recevied weather packets stored in our database for station/object EA5LU-10. If no packets are shown the sender has not sent any weather packets the latest 10 day(s).
| Time | Temp. | Humidity | Pressure | Rain* | Wind** | Luminosity | Snow |
|---|---|---|---|---|---|---|---|
| 1777837090 | 21.67° C | 73% | 1004.1 hPa | - | - | - | - |
| 1777836189 | 21.67° C | 73% | 1003.9 hPa | - | - | - | - |
| 1777835289 | 22.22° C | 72% | 1003.7 hPa | - | - | - | - |
| 1777834388 | 22.22° C | 72% | 1003.3 hPa | - | - | - | - |
| 1777833487 | 22.22° C | 70% | 1003.1 hPa | - | - | - | - |
| 1777832586 | 23.33° C | 67% | 1003 hPa | - | - | - | - |
| 1777831685 | 25° C | 63% | 1002.9 hPa | - | - | - | - |
| 1777830785 | 24.44° C | 62% | 1002.7 hPa | - | - | - | - |
| 1777829884 | 25.56° C | 60% | 1002.7 hPa | - | - | - | - |
| 1777828983 | 26.67° C | 56% | 1002.7 hPa | - | - | - | - |
| 1777828082 | 27.78° C | 53% | 1002.6 hPa | - | - | - | - |
| 1777827181 | 28.89° C | 48% | 1002.7 hPa | - | - | - | - |
| 1777826280 | 26.11° C | 56% | 1002.7 hPa | - | - | - | - |
| 1777825380 | 28.89° C | 48% | 1002.7 hPa | - | - | - | - |
| 1777824479 | 27.78° C | 53% | 1002.8 hPa | - | - | - | - |
| 1777823578 | 28.33° C | 52% | 1002.8 hPa | - | - | - | - |
| 1777822677 | 28.89° C | 47% | 1003 hPa | - | - | - | - |
| 1777821776 | 29.44° C | 47% | 1003 hPa | - | - | - | - |
| 1777820875 | 27.22° C | 53% | 1003.2 hPa | - | - | - | - |
| 1777819974 | 30° C | 45% | 1003.2 hPa | - | - | - | - |
| 1777819073 | 30° C | 46% | 1003.4 hPa | - | - | - | - |
| 1777818173 | 30.56° C | 42% | 1003.5 hPa | - | - | - | - |
| 1777817272 | 30.56° C | 43% | 1003.7 hPa | - | - | - | - |
| 1777816371 | 30° C | 45% | 1003.9 hPa | - | - | - | - |
| 1777815470 | 30.56° C | 43% | 1004 hPa | - | - | - | - |
* Rain since midnight (hover to see other rain measurements)
** Current wind speed in m/s (hover to see current wind gust speed)